Time,TemperatureF,DewpointF,PressureIn,WindDirection,WindDirectionDegrees,WindSpeedMPH,WindSpeedGustMPH,Humidity,HourlyPrecipIn,Conditions,Clouds,dailyrainin,SoftwareType,DateUTC
2013-07-31 00:02:00,76.0,-99.9,30.13,WNW,290,2.0,2.0,-999,-99.99,,,-99.99,,2013-07-31 04:02:00,
2013-07-31 00:12:00,76.0,-99.9,30.13,West,270,2.0,4.0,-999,-99.99,,,-99.99,,2013-07-31 04:12:00,
2013-07-31 00:22:00,76.0,-99.9,30.13,West,280,2.0,2.0,-999,-99.99,,,-99.99,,2013-07-31 04:22:00,
2013-07-31 00:42:00,76.0,-99.9,30.12,North,0,0.0,4.0,-999,-99.99,,,-99.99,,2013-07-31 04:42:00,
2013-07-31 00:52:00,76.0,-99.9,30.13,West,270,4.0,4.0,-999,-99.99,,,-99.99,,2013-07-31 04:52:00,
2013-07-31 01:02:00,76.0,-99.9,30.13,West,260,2.0,4.0,-999,-99.99,,,-99.99,,2013-07-31 05:02:00,
2013-07-31 01:12:00,76.0,-99.9,30.13,WSW,250,2.0,4.0,-999,-99.99,,,-99.99,,2013-07-31 05:12:00,
2013-07-31 01:22:00,75.0,-99.9,30.13,West,260,4.0,4.0,-999,-99.99,,,-99.99,,2013-07-31 05:22:00,
2013-07-31 01:30:00,74.0,-99.9,30.13,West,280,4.0,4.0,-999,-99.99,,,-99.99,,2013-07-31 05:30:00,
2013-07-31 01:32:00,75.0,-99.9,30.13,West,260,4.0,4.0,-999,-99.99,,,-99.99,,2013-07-31 05:32:00,
2013-07-31 01:43:00,75.0,-99.9,30.13,West,270,2.0,4.0,-999,-99.99,,,-99.99,,2013-07-31 05:43:00,
2013-07-31 01:52:00,75.0,-99.9,30.13,West,280,4.0,4.0,-999,-99.99,,,-99.99,,2013-07-31 05:52:00,
2013-07-31 02:02:00,74.0,-99.9,30.13,West,280,4.0,4.0,-999,-99.99,,,-99.99,,2013-07-31 06:02:00,
2013-07-31 02:12:00,74.0,-99.9,30.13,West,280,4.0,4.0,-999,-99.99,,,-99.99,,2013-07-31 06:12:00,
2013-07-31 02:22:00,74.0,-99.9,30.13,West,280,4.0,4.0,-999,-99.99,,,-99.99,,2013-07-31 06:22:00,
2013-07-31 03:02:00,74.0,-99.9,30.13,West,270,7.0,9.0,-999,-99.99,,,-99.99,,2013-07-31 07:02:00,
2013-07-31 03:12:00,74.0,-99.9,30.12,West,280,7.0,7.0,-999,-99.99,,,-99.99,,2013-07-31 07:12:00,
2013-07-31 03:22:00,73.0,-99.9,30.12,West,280,4.0,7.0,-999,-99.99,,,-99.99,,2013-07-31 07:22:00,
2013-07-31 03:32:00,73.0,-99.9,30.12,West,280,4.0,7.0,-999,-99.99,,,-99.99,,2013-07-31 07:32:00,
2013-07-31 03:43:00,73.0,-99.9,30.12,West,280,4.0,7.0,-999,-99.99,,,-99.99,,2013-07-31 07:43:00,
2013-07-31 03:52:00,73.0,-99.9,30.12,West,280,4.0,7.0,-999,-99.99,,,-99.99,,2013-07-31 07:52:00,
2013-07-31 04:02:00,73.0,-99.9,30.12,WNW,290,4.0,7.0,-999,-99.99,,,-99.99,,2013-07-31 08:02:00,
2013-07-31 04:12:00,73.0,-99.9,30.12,WNW,290,4.0,7.0,-999,-99.99,,,-99.99,,2013-07-31 08:12:00,
2013-07-31 04:33:00,74.0,-99.9,30.12,WNW,300,4.0,4.0,-999,-99.99,,,-99.99,,2013-07-31 08:33:00,
2013-07-31 04:42:00,74.0,-99.9,30.12,WNW,300,2.0,7.0,-999,-99.99,,,-99.99,,2013-07-31 08:42:00,
2013-07-31 04:53:00,74.0,-99.9,30.12,WNW,300,4.0,7.0,-999,-99.99,,,-99.99,,2013-07-31 08:53:00,
2013-07-31 05:02:00,73.0,-99.9,30.12,WNW,300,4.0,7.0,-999,-99.99,,,-99.99,,2013-07-31 09:02:00,
2013-07-31 05:12:00,73.0,-99.9,30.12,WNW,300,4.0,7.0,-999,-99.99,,,-99.99,,2013-07-31 09:12:00,
2013-07-31 05:22:00,73.0,-99.9,30.12,WNW,300,4.0,7.0,-999,-99.99,,,-99.99,,2013-07-31 09:22:00,
2013-07-31 05:30:00,72.0,-99.9,30.12,WNW,300,7.0,9.0,-999,-99.99,,,-99.99,,2013-07-31 09:30:00,
2013-07-31 05:33:00,72.0,-99.9,30.12,WNW,300,7.0,7.0,-999,-99.99,,,-99.99,,2013-07-31 09:33:00,
2013-07-31 05:52:00,72.0,-99.9,30.12,West,280,4.0,7.0,-999,-99.99,,,-99.99,,2013-07-31 09:52:00,
2013-07-31 06:02:00,72.0,-99.9,30.12,WNW,300,7.0,9.0,-999,-99.99,,,-99.99,,2013-07-31 10:02:00,
2013-07-31 06:12:00,72.0,-99.9,30.12,WNW,300,7.0,9.0,-999,-99.99,,,-99.99,,2013-07-31 10:12:00,
2013-07-31 06:23:00,72.0,-99.9,30.12,WNW,300,7.0,9.0,-999,-99.99,,,-99.99,,2013-07-31 10:23:00,
2013-07-31 07:03:00,72.0,-99.9,30.13,WNW,290,4.0,7.0,-999,-99.99,,,-99.99,,2013-07-31 11:03:00,
2013-07-31 07:12:00,72.0,-99.9,30.13,WNW,290,4.0,7.0,-999,-99.99,,,-99.99,,2013-07-31 11:12:00,
2013-07-31 07:22:00,72.0,-99.9,30.13,WNW,290,4.0,7.0,-999,-99.99,,,-99.99,,2013-07-31 11:22:00,
2013-07-31 07:33:00,72.0,-99.9,30.13,West,270,4.0,7.0,-999,-99.99,,,-99.99,,2013-07-31 11:33:00,
2013-07-31 07:43:00,72.0,-99.9,30.13,West,270,4.0,7.0,-999,-99.99,,,-99.99,,2013-07-31 11:43:00,
2013-07-31 07:53:00,73.0,-99.9,30.13,WNW,300,4.0,7.0,-999,-99.99,,,-99.99,,2013-07-31 11:53:00,
2013-07-31 08:03:00,73.0,-99.9,30.13,WNW,300,4.0,7.0,-999,-99.99,,,-99.99,,2013-07-31 12:03:00,
2013-07-31 08:13:00,73.0,-99.9,30.13,WNW,300,4.0,7.0,-999,-99.99,,,-99.99,,2013-07-31 12:13:00,
2013-07-31 08:22:00,74.0,-99.9,30.13,SW,230,2.0,4.0,-999,-99.99,,,-99.99,,2013-07-31 12:22:00,
2013-07-31 08:33:00,74.0,-99.9,30.13,SW,230,2.0,4.0,-999,-99.99,,,-99.99,,2013-07-31 12:33:00,
2013-07-31 08:43:00,74.0,-99.9,30.13,SW,230,2.0,4.0,-999,-99.99,,,-99.99,,2013-07-31 12:43:00,
2013-07-31 08:53:00,75.0,-99.9,30.13,North,0,0.0,2.0,-999,-99.99,,,-99.99,,2013-07-31 12:53:00,
2013-07-31 09:02:00,75.0,-99.9,30.13,WSW,240,2.0,4.0,-999,-99.99,,,-99.99,,2013-07-31 13:02:00,
2013-07-31 09:12:00,75.0,-99.9,30.13,SW,220,2.0,2.0,-999,-99.99,,,-99.99,,2013-07-31 13:12:00,
2013-07-31 09:33:00,75.0,-99.9,30.13,North,0,0.0,2.0,-999,-99.99,,,-99.99,,2013-07-31 13:33:00,
2013-07-31 09:43:00,76.0,-99.9,30.13,WSW,250,2.0,2.0,-999,-99.99,,,-99.99,,2013-07-31 13:43:00,
2013-07-31 10:02:00,77.0,-99.9,30.13,North,0,0.0,2.0,-999,-99.99,,,-99.99,,2013-07-31 14:02:00,
2013-07-31 10:34:00,77.0,-99.9,30.13,SSW,200,7.0,9.0,-999,-99.99,,,-99.99,,2013-07-31 14:34:00,
2013-07-31 10:43:00,76.0,-99.9,30.12,South,170,4.0,7.0,-999,-99.99,,,-99.99,,2013-07-31 14:43:00,
2013-07-31 10:53:00,76.0,-99.9,30.12,South,170,4.0,7.0,-999,-99.99,,,-99.99,,2013-07-31 14:53:00,
2013-07-31 11:02:00,76.0,-99.9,30.12,South,170,7.0,7.0,-999,-99.99,,,-99.99,,2013-07-31 15:02:00,
2013-07-31 11:12:00,76.0,-99.9,30.12,South,170,4.0,7.0,-999,-99.99,,,-99.99,,2013-07-31 15:12:00,
2013-07-31 11:33:00,77.0,-99.9,30.12,SSE,150,4.0,7.0,-999,-99.99,,,-99.99,,2013-07-31 15:33:00,
2013-07-31 11:44:00,77.0,-99.9,30.12,SSE,150,7.0,7.0,-999,-99.99,,,-99.99,,2013-07-31 15:44:00,
2013-07-31 11:53:00,77.0,-99.9,30.12,SSE,150,4.0,7.0,-999,-99.99,,,-99.99,,2013-07-31 15:53:00,
2013-07-31 12:03:00,77.0,-99.9,30.11,South,170,4.0,7.0,-999,-99.99,,,-99.99,,2013-07-31 16:03:00,
2013-07-31 12:12:00,77.0,-99.9,30.11,South,170,4.0,7.0,-999,-99.99,,,-99.99,,2013-07-31 16:12:00,
2013-07-31 12:33:00,78.0,-99.9,30.11,South,170,7.0,9.0,-999,-99.99,,,-99.99,,2013-07-31 16:33:00,
2013-07-31 12:44:00,78.0,-99.9,30.11,South,190,7.0,9.0,-999,-99.99,,,-99.99,,2013-07-31 16:44:00,
2013-07-31 12:53:00,78.0,-99.9,30.11,South,180,9.0,11.0,-999,-99.99,,,-99.99,,2013-07-31 16:53:00,
2013-07-31 13:03:00,78.0,-99.9,30.10,South,180,9.0,11.0,-999,-99.99,,,-99.99,,2013-07-31 17:03:00,
2013-07-31 13:13:00,78.0,-99.9,30.10,South,180,9.0,11.0,-999,-99.99,,,-99.99,,2013-07-31 17:13:00,
2013-07-31 13:33:00,78.0,-99.9,30.10,South,180,9.0,11.0,-999,-99.99,,,-99.99,,2013-07-31 17:33:00,
2013-07-31 13:40:00,79.0,-99.9,30.09,South,170,11.0,16.0,-999,-99.99,,,-99.99,,2013-07-31 17:40:00,
2013-07-31 13:43:00,79.0,-99.9,30.09,South,180,11.0,13.0,-999,-99.99,,,-99.99,,2013-07-31 17:43:00,
2013-07-31 13:53:00,79.0,-99.9,30.09,South,180,11.0,13.0,-999,-99.99,,,-99.99,,2013-07-31 17:53:00,
2013-07-31 14:02:00,79.0,-99.9,30.09,South,180,11.0,13.0,-999,-99.99,,,-99.99,,2013-07-31 18:02:00,
2013-07-31 14:13:00,79.0,-99.9,30.09,South,170,11.0,16.0,-999,-99.99,,,-99.99,,2013-07-31 18:13:00,
2013-07-31 14:23:00,79.0,-99.9,30.09,South,170,11.0,16.0,-999,-99.99,,,-99.99,,2013-07-31 18:23:00,
2013-07-31 14:33:00,79.0,-99.9,30.09,South,170,11.0,16.0,-999,-99.99,,,-99.99,,2013-07-31 18:33:00,
2013-07-31 15:33:00,79.0,-99.9,30.07,South,190,13.0,18.0,-999,-99.99,,,-99.99,,2013-07-31 19:33:00,
2013-07-31 15:40:00,79.0,-99.9,30.06,South,190,11.0,13.0,-999,-99.99,,,-99.99,,2013-07-31 19:40:00,
2013-07-31 15:43:00,79.0,-99.9,30.07,South,190,13.0,18.0,-999,-99.99,,,-99.99,,2013-07-31 19:43:00,
2013-07-31 15:53:00,79.0,-99.9,30.07,South,190,13.0,18.0,-999,-99.99,,,-99.99,,2013-07-31 19:53:00,
2013-07-31 16:03:00,79.0,-99.9,30.06,South,190,11.0,16.0,-999,-99.99,,,-99.99,,2013-07-31 20:03:00,
2013-07-31 16:13:00,79.0,-99.9,30.06,South,190,11.0,13.0,-999,-99.99,,,-99.99,,2013-07-31 20:13:00,
2013-07-31 16:23:00,79.0,-99.9,30.06,South,190,11.0,13.0,-999,-99.99,,,-99.99,,2013-07-31 20:23:00,
2013-07-31 16:33:00,79.0,-99.9,30.06,South,190,11.0,13.0,-999,-99.99,,,-99.99,,2013-07-31 20:33:00,
2013-07-31 17:13:00,79.0,-99.9,30.04,South,190,13.0,16.0,-999,-99.99,,,-99.99,,2013-07-31 21:13:00,
2013-07-31 17:22:00,79.0,-99.9,30.04,SSW,200,13.0,18.0,-999,-99.99,,,-99.99,,2013-07-31 21:22:00,
2013-07-31 17:33:00,79.0,-99.9,30.04,SSW,200,13.0,18.0,-999,-99.99,,,-99.99,,2013-07-31 21:33:00,
2013-07-31 17:43:00,79.0,-99.9,30.04,SSW,200,13.0,18.0,-999,-99.99,,,-99.99,,2013-07-31 21:43:00,
2013-07-31 17:53:00,79.0,-99.9,30.04,South,190,13.0,16.0,-999,-99.99,,,-99.99,,2013-07-31 21:53:00,
2013-07-31 18:02:00,79.0,-99.9,30.04,South,190,13.0,16.0,-999,-99.99,,,-99.99,,2013-07-31 22:02:00,
2013-07-31 18:13:00,79.0,-99.9,30.03,South,190,13.0,18.0,-999,-99.99,,,-99.99,,2013-07-31 22:13:00,
2013-07-31 18:33:00,79.0,-99.9,30.03,South,190,13.0,18.0,-999,-99.99,,,-99.99,,2013-07-31 22:33:00,
2013-07-31 18:53:00,79.0,-99.9,30.03,South,190,16.0,20.0,-999,-99.99,,,-99.99,,2013-07-31 22:53:00,
2013-07-31 19:02:00,79.0,-99.9,30.02,South,180,16.0,20.0,-999,-99.99,,,-99.99,,2013-07-31 23:02:00,
2013-07-31 19:12:00,79.0,-99.9,30.02,South,190,18.0,20.0,-999,-99.99,,,-99.99,,2013-07-31 23:12:00,
2013-07-31 19:22:00,79.0,-99.9,30.02,South,190,18.0,22.0,-999,-99.99,,,-99.99,,2013-07-31 23:22:00,
2013-07-31 19:32:00,79.0,-99.9,30.02,South,190,18.0,22.0,-999,-99.99,,,-99.99,,2013-07-31 23:32:00,
2013-07-31 19:43:00,79.0,-99.9,30.02,South,190,18.0,22.0,-999,-99.99,,,-99.99,,2013-07-31 23:43:00,
2013-07-31 19:53:00,80.0,-99.9,30.01,South,190,18.0,22.0,-999,-99.99,,,-99.99,,2013-07-31 23:53:00,
2013-07-31 20:03:00,80.0,-99.9,30.01,South,190,18.0,22.0,-999,-99.99,,,-99.99,,2013-08-01 00:03:00,
2013-07-31 20:12:00,80.0,-99.9,30.01,South,190,18.0,22.0,-999,-99.99,,,-99.99,,2013-08-01 00:12:00,
2013-07-31 20:22:00,80.0,-99.9,30.01,SSW,200,20.0,25.0,-999,-99.99,,,-99.99,,2013-08-01 00:22:00,
2013-07-31 20:32:00,80.0,-99.9,30.01,SSW,200,20.0,25.0,-999,-99.99,,,-99.99,,2013-08-01 00:32:00,
2013-07-31 20:43:00,79.0,-99.9,30.01,SSW,210,20.0,22.0,-999,-99.99,,,-99.99,,2013-08-01 00:43:00,
2013-07-31 20:53:00,79.0,-99.9,30.01,SW,220,18.0,20.0,-999,-99.99,,,-99.99,,2013-08-01 00:53:00,
2013-07-31 21:03:00,78.0,-99.9,30.01,SW,230,13.0,18.0,-999,-99.99,,,-99.99,,2013-08-01 01:03:00,
2013-07-31 21:13:00,78.0,-99.9,30.01,SW,230,13.0,20.0,-999,-99.99,,,-99.99,,2013-08-01 01:13:00,
2013-07-31 21:22:00,77.0,-99.9,30.01,SW,220,11.0,13.0,-999,-99.99,,,-99.99,,2013-08-01 01:22:00,
2013-07-31 21:33:00,77.0,-99.9,30.01,SW,220,11.0,13.0,-999,-99.99,,,-99.99,,2013-08-01 01:33:00,
2013-07-31 21:43:00,77.0,-99.9,30.02,SW,220,11.0,13.0,-999,-99.99,,,-99.99,,2013-08-01 01:43:00,
2013-07-31 21:53:00,77.0,-99.9,30.02,SW,220,11.0,16.0,-999,-99.99,,,-99.99,,2013-08-01 01:53:00,
2013-07-31 22:03:00,77.0,-99.9,30.02,SW,220,11.0,13.0,-999,-99.99,,,-99.99,,2013-08-01 02:03:00,
2013-07-31 22:13:00,76.0,-99.9,30.02,SW,220,9.0,13.0,-999,-99.99,,,-99.99,,2013-08-01 02:13:00,
2013-07-31 22:22:00,76.0,-99.9,30.02,SW,220,9.0,13.0,-999,-99.99,,,-99.99,,2013-08-01 02:22:00,
2013-07-31 22:30:00,77.0,-99.9,30.02,SW,220,11.0,18.0,-999,-99.99,,,-99.99,,2013-08-01 02:30:00,
2013-07-31 22:32:00,76.0,-99.9,30.02,SW,230,9.0,11.0,-999,-99.99,,,-99.99,,2013-08-01 02:32:00,
2013-07-31 22:53:00,76.0,-99.9,30.02,SW,220,11.0,13.0,-999,-99.99,,,-99.99,,2013-08-01 02:53:00,
2013-07-31 23:02:00,77.0,-99.9,30.02,SW,220,11.0,18.0,-999,-99.99,,,-99.99,,2013-08-01 03:02:00,
2013-07-31 23:12:00,77.0,-99.9,30.02,SW,220,11.0,18.0,-999,-99.99,,,-99.99,,2013-08-01 03:12:00,
2013-07-31 23:22:00,77.0,-99.9,30.02,SW,220,11.0,18.0,-999,-99.99,,,-99.99,,2013-08-01 03:22:00,